sensor_id;sensor_type;location;lat;lon;timestamp;temperature;humidity
75994;DHT22;64680;53.800;9.988;2022-12-29T00:01:40;7.00;99.90
75994;DHT22;64680;53.800;9.988;2022-12-29T00:04:06;7.00;99.90
75994;DHT22;64680;53.800;9.988;2022-12-29T00:06:31;7.00;99.90
75994;DHT22;64680;53.800;9.988;2022-12-29T00:08:58;7.10;99.90
75994;DHT22;64680;53.800;9.988;2022-12-29T00:11:25;7.10;99.90
75994;DHT22;64680;53.800;9.988;2022-12-29T00:13:52;7.10;99.90
75994;DHT22;64680;53.800;9.988;2022-12-29T00:16:38;7.10;99.90
75994;DHT22;64680;53.800;9.988;2022-12-29T00:19:04;7.10;99.90
75994;DHT22;64680;53.800;9.988;2022-12-29T00:21:30;7.10;99.90
75994;DHT22;64680;53.800;9.988;2022-12-29T00:24:17;7.20;99.90
75994;DHT22;64680;53.800;9.988;2022-12-29T00:29:39;7.20;99.90
75994;DHT22;64680;53.800;9.988;2022-12-29T00:32:23;7.30;99.90
75994;DHT22;64680;53.800;9.988;2022-12-29T00:35:11;7.30;99.90
75994;DHT22;64680;53.800;9.988;2022-12-29T00:37:43;7.30;99.90
75994;DHT22;64680;53.800;9.988;2022-12-29T00:40:27;7.30;99.90
75994;DHT22;64680;53.800;9.988;2022-12-29T00:43:11;7.40;99.90
75994;DHT22;64680;53.800;9.988;2022-12-29T00:45:55;7.40;99.90
75994;DHT22;64680;53.800;9.988;2022-12-29T00:48:21;7.40;99.90
75994;DHT22;64680;53.800;9.988;2022-12-29T00:51:06;7.40;99.90
75994;DHT22;64680;53.800;9.988;2022-12-29T00:53:32;7.40;99.90
75994;DHT22;64680;53.800;9.988;2022-12-29T00:55:57;7.40;99.90
75994;DHT22;64680;53.800;9.988;2022-12-29T00:58:23;7.50;99.90
75994;DHT22;64680;53.800;9.988;2022-12-29T01:00:49;7.50;99.90
75994;DHT22;64680;53.800;9.988;2022-12-29T01:03:14;7.50;99.90
75994;DHT22;64680;53.800;9.988;2022-12-29T01:05:40;7.50;99.90
75994;DHT22;64680;53.800;9.988;2022-12-29T01:08:05;7.60;99.90
75994;DHT22;64680;53.800;9.988;2022-12-29T01:10:31;7.60;99.90
75994;DHT22;64680;53.800;9.988;2022-12-29T01:12:56;7.50;99.90
75994;DHT22;64680;53.800;9.988;2022-12-29T01:15:22;7.60;99.90
75994;DHT22;64680;53.800;9.988;2022-12-29T01:17:47;7.60;99.90
75994;DHT22;64680;53.800;9.988;2022-12-29T01:20:13;7.60;99.90
75994;DHT22;64680;53.800;9.988;2022-12-29T01:22:39;7.60;99.90
75994;DHT22;64680;53.800;9.988;2022-12-29T01:25:05;7.70;99.90
75994;DHT22;64680;53.800;9.988;2022-12-29T01:27:31;7.60;99.90
75994;DHT22;64680;53.800;9.988;2022-12-29T01:29:57;7.70;99.90
75994;DHT22;64680;53.800;9.988;2022-12-29T01:32:23;7.70;99.90
75994;DHT22;64680;53.800;9.988;2022-12-29T01:34:48;7.70;99.90
75994;DHT22;64680;53.800;9.988;2022-12-29T01:37:14;7.70;99.90
75994;DHT22;64680;53.800;9.988;2022-12-29T01:39:39;7.70;99.90
75994;DHT22;64680;53.800;9.988;2022-12-29T01:42:08;7.70;99.90
75994;DHT22;64680;53.800;9.988;2022-12-29T01:44:55;7.80;99.90
75994;DHT22;64680;53.800;9.988;2022-12-29T01:47:33;7.80;99.90
75994;DHT22;64680;53.800;9.988;2022-12-29T01:50:12;7.70;99.90
75994;DHT22;64680;53.800;9.988;2022-12-29T01:52:44;7.70;99.90
75994;DHT22;64680;53.800;9.988;2022-12-29T01:55:12;7.70;99.90
75994;DHT22;64680;53.800;9.988;2022-12-29T01:57:40;7.70;99.90
75994;DHT22;64680;53.800;9.988;2022-12-29T02:00:11;7.80;99.90
75994;DHT22;64680;53.800;9.988;2022-12-29T02:02:39;7.80;99.90
75994;DHT22;64680;53.800;9.988;2022-12-29T02:05:33;7.80;99.90
75994;DHT22;64680;53.800;9.988;2022-12-29T02:08:01;7.80;99.90
75994;DHT22;64680;53.800;9.988;2022-12-29T02:10:30;7.80;99.90
75994;DHT22;64680;53.800;9.988;2022-12-29T02:12:56;7.80;99.90
75994;DHT22;64680;53.800;9.988;2022-12-29T02:26:19;8.00;99.90
75994;DHT22;64680;53.800;9.988;2022-12-29T02:34:52;8.10;99.90
75994;DHT22;64680;53.800;9.988;2022-12-29T02:40:22;8.10;99.90
75994;DHT22;64680;53.800;9.988;2022-12-29T02:45:57;8.20;99.90
75994;DHT22;64680;53.800;9.988;2022-12-29T02:48:30;8.10;99.90
75994;DHT22;64680;53.800;9.988;2022-12-29T02:51:02;8.10;99.90
75994;DHT22;64680;53.800;9.988;2022-12-29T02:53:29;8.10;99.90
75994;DHT22;64680;53.800;9.988;2022-12-29T02:56:14;8.20;99.90
75994;DHT22;64680;53.800;9.988;2022-12-29T02:58:40;8.20;99.90
75994;DHT22;64680;53.800;9.988;2022-12-29T03:04:24;8.20;99.90
75994;DHT22;64680;53.800;9.988;2022-12-29T03:09:36;8.30;99.90
75994;DHT22;64680;53.800;9.988;2022-12-29T03:15:15;8.30;99.90
75994;DHT22;64680;53.800;9.988;2022-12-29T03:18:08;8.30;99.90
75994;DHT22;64680;53.800;9.988;2022-12-29T03:23:16;8.40;99.90
75994;DHT22;64680;53.800;9.988;2022-12-29T03:25:48;8.40;99.90
75994;DHT22;64680;53.800;9.988;2022-12-29T03:28:21;8.40;99.90
75994;DHT22;64680;53.800;9.988;2022-12-29T03:30:47;8.40;99.90
75994;DHT22;64680;53.800;9.988;2022-12-29T03:33:16;8.40;99.90
75994;DHT22;64680;53.800;9.988;2022-12-29T03:35:44;8.40;99.90
75994;DHT22;64680;53.800;9.988;2022-12-29T03:40:46;8.50;99.90
75994;DHT22;64680;53.800;9.988;2022-12-29T03:43:13;8.50;99.90
75994;DHT22;64680;53.800;9.988;2022-12-29T03:45:39;8.50;99.90
75994;DHT22;64680;53.800;9.988;2022-12-29T03:48:04;8.60;99.90
75994;DHT22;64680;53.800;9.988;2022-12-29T03:50:30;8.50;99.90
75994;DHT22;64680;53.800;9.988;2022-12-29T03:52:56;8.60;99.90
75994;DHT22;64680;53.800;9.988;2022-12-29T03:55:21;8.60;99.90
75994;DHT22;64680;53.800;9.988;2022-12-29T03:57:47;8.50;99.90
75994;DHT22;64680;53.800;9.988;2022-12-29T04:00:12;8.60;99.90
75994;DHT22;64680;53.800;9.988;2022-12-29T04:02:38;8.60;99.90
75994;DHT22;64680;53.800;9.988;2022-12-29T04:05:04;8.60;99.90
75994;DHT22;64680;53.800;9.988;2022-12-29T04:07:30;8.60;99.90
75994;DHT22;64680;53.800;9.988;2022-12-29T04:09:56;8.60;99.90
75994;DHT22;64680;53.800;9.988;2022-12-29T04:12:21;8.70;99.90
75994;DHT22;64680;53.800;9.988;2022-12-29T04:14:47;8.70;99.90
75994;DHT22;64680;53.800;9.988;2022-12-29T04:17:12;8.70;99.90
75994;DHT22;64680;53.800;9.988;2022-12-29T04:19:38;8.70;99.90
75994;DHT22;64680;53.800;9.988;2022-12-29T04:22:03;8.70;99.90
75994;DHT22;64680;53.800;9.988;2022-12-29T04:24:29;8.70;99.90
75994;DHT22;64680;53.800;9.988;2022-12-29T04:26:55;8.80;99.90
75994;DHT22;64680;53.800;9.988;2022-12-29T04:29:20;8.80;99.90
75994;DHT22;64680;53.800;9.988;2022-12-29T04:31:46;8.70;99.90
75994;DHT22;64680;53.800;9.988;2022-12-29T04:34:12;8.70;99.90
75994;DHT22;64680;53.800;9.988;2022-12-29T04:36:37;8.70;99.90
75994;DHT22;64680;53.800;9.988;2022-12-29T04:39:05;8.70;99.90
75994;DHT22;64680;53.800;9.988;2022-12-29T04:41:30;8.70;99.90
75994;DHT22;64680;53.800;9.988;2022-12-29T04:43:56;8.80;99.90
75994;DHT22;64680;53.800;9.988;2022-12-29T04:46:22;8.80;99.90
75994;DHT22;64680;53.800;9.988;2022-12-29T04:48:47;8.80;99.90
75994;DHT22;64680;53.800;9.988;2022-12-29T04:51:13;8.80;99.90
75994;DHT22;64680;53.800;9.988;2022-12-29T04:53:38;8.80;99.90
75994;DHT22;64680;53.800;9.988;2022-12-29T04:56:04;8.90;99.90
75994;DHT22;64680;53.800;9.988;2022-12-29T04:58:30;8.90;99.90
75994;DHT22;64680;53.800;9.988;2022-12-29T05:00:55;8.90;99.90
75994;DHT22;64680;53.800;9.988;2022-12-29T05:03:21;8.90;99.90
75994;DHT22;64680;53.800;9.988;2022-12-29T05:05:47;8.90;99.90
75994;DHT22;64680;53.800;9.988;2022-12-29T05:08:12;8.90;99.90
75994;DHT22;64680;53.800;9.988;2022-12-29T05:10:38;8.80;99.90
75994;DHT22;64680;53.800;9.988;2022-12-29T05:13:03;8.80;99.90
75994;DHT22;64680;53.800;9.988;2022-12-29T05:15:29;8.70;99.90
75994;DHT22;64680;53.800;9.988;2022-12-29T05:17:54;8.80;99.90
75994;DHT22;64680;53.800;9.988;2022-12-29T05:20:20;8.70;99.90
75994;DHT22;64680;53.800;9.988;2022-12-29T05:22:46;8.70;99.90
75994;DHT22;64680;53.800;9.988;2022-12-29T05:25:11;8.60;99.90
75994;DHT22;64680;53.800;9.988;2022-12-29T05:27:37;8.60;99.90
75994;DHT22;64680;53.800;9.988;2022-12-29T05:30:03;8.60;99.90
75994;DHT22;64680;53.800;9.988;2022-12-29T05:32:28;8.60;99.90
75994;DHT22;64680;53.800;9.988;2022-12-29T05:34:54;8.70;99.90
75994;DHT22;64680;53.800;9.988;2022-12-29T05:37:20;8.70;99.90
75994;DHT22;64680;53.800;9.988;2022-12-29T05:39:45;8.70;99.90
75994;DHT22;64680;53.800;9.988;2022-12-29T05:42:11;8.70;99.90
75994;DHT22;64680;53.800;9.988;2022-12-29T05:44:36;8.70;99.90
75994;DHT22;64680;53.800;9.988;2022-12-29T05:47:02;8.80;99.90
75994;DHT22;64680;53.800;9.988;2022-12-29T05:49:28;8.80;99.90
75994;DHT22;64680;53.800;9.988;2022-12-29T05:51:53;8.80;99.90
75994;DHT22;64680;53.800;9.988;2022-12-29T05:54:19;8.80;99.90
75994;DHT22;64680;53.800;9.988;2022-12-29T05:56:44;8.80;99.90
75994;DHT22;64680;53.800;9.988;2022-12-29T05:59:10;8.80;99.90
75994;DHT22;64680;53.800;9.988;2022-12-29T06:01:35;8.80;99.90
75994;DHT22;64680;53.800;9.988;2022-12-29T06:04:01;8.80;99.90
75994;DHT22;64680;53.800;9.988;2022-12-29T06:06:26;8.80;99.90
75994;DHT22;64680;53.800;9.988;2022-12-29T06:08:52;8.90;99.90
75994;DHT22;64680;53.800;9.988;2022-12-29T06:11:17;8.90;99.90
75994;DHT22;64680;53.800;9.988;2022-12-29T06:13:43;8.90;99.90
75994;DHT22;64680;53.800;9.988;2022-12-29T06:16:09;8.80;99.90
75994;DHT22;64680;53.800;9.988;2022-12-29T06:18:34;8.90;99.90
75994;DHT22;64680;53.800;9.988;2022-12-29T06:21:01;8.80;99.90
75994;DHT22;64680;53.800;9.988;2022-12-29T06:23:27;8.80;99.90
75994;DHT22;64680;53.800;9.988;2022-12-29T06:25:53;8.90;99.90
75994;DHT22;64680;53.800;9.988;2022-12-29T06:28:18;8.90;99.90
75994;DHT22;64680;53.800;9.988;2022-12-29T06:30:45;8.90;99.90
75994;DHT22;64680;53.800;9.988;2022-12-29T06:33:11;8.80;99.90
75994;DHT22;64680;53.800;9.988;2022-12-29T06:35:37;8.90;99.90
75994;DHT22;64680;53.800;9.988;2022-12-29T06:38:03;8.90;99.90
75994;DHT22;64680;53.800;9.988;2022-12-29T06:40:29;8.90;99.90
75994;DHT22;64680;53.800;9.988;2022-12-29T06:42:55;8.90;99.90
75994;DHT22;64680;53.800;9.988;2022-12-29T06:45:20;8.90;99.90
75994;DHT22;64680;53.800;9.988;2022-12-29T06:47:46;8.80;99.90
75994;DHT22;64680;53.800;9.988;2022-12-29T06:50:11;8.80;99.90
75994;DHT22;64680;53.800;9.988;2022-12-29T06:52:37;8.70;99.90
75994;DHT22;64680;53.800;9.988;2022-12-29T06:55:03;8.60;99.90
75994;DHT22;64680;53.800;9.988;2022-12-29T06:57:28;8.60;99.90
75994;DHT22;64680;53.800;9.988;2022-12-29T06:59:54;8.60;99.90
75994;DHT22;64680;53.800;9.988;2022-12-29T07:02:21;8.50;99.90
75994;DHT22;64680;53.800;9.988;2022-12-29T07:04:47;8.50;99.90
75994;DHT22;64680;53.800;9.988;2022-12-29T07:07:12;8.60;99.90
75994;DHT22;64680;53.800;9.988;2022-12-29T07:09:38;8.60;99.90
75994;DHT22;64680;53.800;9.988;2022-12-29T07:12:04;8.60;99.90
75994;DHT22;64680;53.800;9.988;2022-12-29T07:14:29;8.60;99.90
75994;DHT22;64680;53.800;9.988;2022-12-29T07:16:55;8.70;99.90
75994;DHT22;64680;53.800;9.988;2022-12-29T07:19:20;8.70;99.90
75994;DHT22;64680;53.800;9.988;2022-12-29T07:21:46;8.70;99.90
75994;DHT22;64680;53.800;9.988;2022-12-29T07:24:11;8.60;99.90
75994;DHT22;64680;53.800;9.988;2022-12-29T07:26:37;8.60;99.90
75994;DHT22;64680;53.800;9.988;2022-12-29T07:29:04;8.60;99.90
75994;DHT22;64680;53.800;9.988;2022-12-29T07:31:29;8.60;99.90
75994;DHT22;64680;53.800;9.988;2022-12-29T07:33:55;8.70;99.90
75994;DHT22;64680;53.800;9.988;2022-12-29T07:36:21;8.70;99.90
75994;DHT22;64680;53.800;9.988;2022-12-29T07:38:46;8.60;99.90
75994;DHT22;64680;53.800;9.988;2022-12-29T07:41:12;8.60;99.90
75994;DHT22;64680;53.800;9.988;2022-12-29T07:43:38;8.70;99.90
75994;DHT22;64680;53.800;9.988;2022-12-29T07:46:03;8.80;99.90
75994;DHT22;64680;53.800;9.988;2022-12-29T07:48:29;8.80;99.90
75994;DHT22;64680;53.800;9.988;2022-12-29T07:50:54;8.70;99.90
75994;DHT22;64680;53.800;9.988;2022-12-29T07:53:20;8.80;99.90
75994;DHT22;64680;53.800;9.988;2022-12-29T07:55:45;8.70;99.90
75994;DHT22;64680;53.800;9.988;2022-12-29T07:58:11;8.70;99.90
75994;DHT22;64680;53.800;9.988;2022-12-29T08:00:38;8.70;99.90
75994;DHT22;64680;53.800;9.988;2022-12-29T08:03:04;8.70;99.90
75994;DHT22;64680;53.800;9.988;2022-12-29T08:05:33;8.70;99.90
75994;DHT22;64680;53.800;9.988;2022-12-29T08:08:00;8.70;99.90
75994;DHT22;64680;53.800;9.988;2022-12-29T08:10:25;8.70;99.90
75994;DHT22;64680;53.800;9.988;2022-12-29T08:12:51;8.70;99.90
75994;DHT22;64680;53.800;9.988;2022-12-29T08:15:17;8.70;99.90
75994;DHT22;64680;53.800;9.988;2022-12-29T08:17:43;8.80;99.90
75994;DHT22;64680;53.800;9.988;2022-12-29T08:20:09;8.70;99.90
75994;DHT22;64680;53.800;9.988;2022-12-29T08:22:35;8.70;99.90
75994;DHT22;64680;53.800;9.988;2022-12-29T08:25:00;8.70;99.90
75994;DHT22;64680;53.800;9.988;2022-12-29T08:27:26;8.70;99.90
75994;DHT22;64680;53.800;9.988;2022-12-29T08:29:52;8.70;99.90
75994;DHT22;64680;53.800;9.988;2022-12-29T08:32:18;8.60;99.90
75994;DHT22;64680;53.800;9.988;2022-12-29T08:34:43;8.70;99.90
75994;DHT22;64680;53.800;9.988;2022-12-29T08:37:09;8.80;99.90
75994;DHT22;64680;53.800;9.988;2022-12-29T08:39:35;8.80;99.90
75994;DHT22;64680;53.800;9.988;2022-12-29T08:42:00;8.80;99.90
75994;DHT22;64680;53.800;9.988;2022-12-29T08:44:26;8.80;99.90
75994;DHT22;64680;53.800;9.988;2022-12-29T08:46:51;8.80;99.90
75994;DHT22;64680;53.800;9.988;2022-12-29T08:49:17;8.90;99.90
75994;DHT22;64680;53.800;9.988;2022-12-29T08:51:43;8.90;99.90
75994;DHT22;64680;53.800;9.988;2022-12-29T08:54:08;8.80;99.90
75994;DHT22;64680;53.800;9.988;2022-12-29T08:56:34;8.80;99.90
75994;DHT22;64680;53.800;9.988;2022-12-29T08:58:59;8.90;99.90
75994;DHT22;64680;53.800;9.988;2022-12-29T09:01:25;8.90;99.90
75994;DHT22;64680;53.800;9.988;2022-12-29T09:03:51;8.90;99.90
75994;DHT22;64680;53.800;9.988;2022-12-29T09:06:17;9.00;99.90
75994;DHT22;64680;53.800;9.988;2022-12-29T09:08:43;9.00;99.90
75994;DHT22;64680;53.800;9.988;2022-12-29T09:11:12;9.10;99.90
75994;DHT22;64680;53.800;9.988;2022-12-29T09:13:39;9.00;99.90
75994;DHT22;64680;53.800;9.988;2022-12-29T09:16:04;9.00;99.90
75994;DHT22;64680;53.800;9.988;2022-12-29T09:18:30;9.00;99.90
75994;DHT22;64680;53.800;9.988;2022-12-29T09:21:00;9.00;99.90
75994;DHT22;64680;53.800;9.988;2022-12-29T09:23:27;9.10;99.90
75994;DHT22;64680;53.800;9.988;2022-12-29T09:25:53;9.10;99.90
75994;DHT22;64680;53.800;9.988;2022-12-29T09:28:20;9.10;99.90
75994;DHT22;64680;53.800;9.988;2022-12-29T09:30:46;9.20;99.90
75994;DHT22;64680;53.800;9.988;2022-12-29T09:33:12;9.40;99.90
75994;DHT22;64680;53.800;9.988;2022-12-29T09:35:41;9.30;99.90
75994;DHT22;64680;53.800;9.988;2022-12-29T09:38:07;9.20;99.90
75994;DHT22;64680;53.800;9.988;2022-12-29T09:40:33;9.30;99.90
75994;DHT22;64680;53.800;9.988;2022-12-29T09:43:21;9.40;99.90
75994;DHT22;64680;53.800;9.988;2022-12-29T09:46:11;9.40;99.90
75994;DHT22;64680;53.800;9.988;2022-12-29T09:48:43;9.30;99.90
75994;DHT22;64680;53.800;9.988;2022-12-29T09:51:13;9.30;99.90
75994;DHT22;64680;53.800;9.988;2022-12-29T09:53:50;9.30;99.90
75994;DHT22;64680;53.800;9.988;2022-12-29T09:56:22;9.40;99.90
75994;DHT22;64680;53.800;9.988;2022-12-29T09:59:02;9.40;99.90
75994;DHT22;64680;53.800;9.988;2022-12-29T10:04:14;9.30;99.90
75994;DHT22;64680;53.800;9.988;2022-12-29T10:06:53;9.30;99.90
75994;DHT22;64680;53.800;9.988;2022-12-29T10:09:41;9.30;99.90
75994;DHT22;64680;53.800;9.988;2022-12-29T10:14:56;9.20;99.90
75994;DHT22;64680;53.800;9.988;2022-12-29T10:17:29;9.20;99.90
75994;DHT22;64680;53.800;9.988;2022-12-29T10:25:17;9.30;99.90
75994;DHT22;64680;53.800;9.988;2022-12-29T10:27:47;9.30;99.90
75994;DHT22;64680;53.800;9.988;2022-12-29T10:30:14;9.30;99.90
75994;DHT22;64680;53.800;9.988;2022-12-29T10:32:41;9.20;99.90
75994;DHT22;64680;53.800;9.988;2022-12-29T10:35:23;9.20;99.90
75994;DHT22;64680;53.800;9.988;2022-12-29T10:42:57;9.50;99.90
75994;DHT22;64680;53.800;9.988;2022-12-29T10:45:27;9.50;99.90
75994;DHT22;64680;53.800;9.988;2022-12-29T10:50:26;9.60;99.90
75994;DHT22;64680;53.800;9.988;2022-12-29T10:52:55;9.50;99.90
75994;DHT22;64680;53.800;9.988;2022-12-29T10:55:26;9.50;99.90
75994;DHT22;64680;53.800;9.988;2022-12-29T10:57:54;9.50;99.90
75994;DHT22;64680;53.800;9.988;2022-12-29T11:00:21;9.40;99.90
75994;DHT22;64680;53.800;9.988;2022-12-29T11:02:54;9.40;99.90
75994;DHT22;64680;53.800;9.988;2022-12-29T11:08:20;9.30;99.90
75994;DHT22;64680;53.800;9.988;2022-12-29T11:11:00;9.30;99.90
75994;DHT22;64680;53.800;9.988;2022-12-29T11:13:29;9.40;99.40
75994;DHT22;64680;53.800;9.988;2022-12-29T11:15:55;9.40;98.80
75994;DHT22;64680;53.800;9.988;2022-12-29T11:18:31;9.40;99.00
75994;DHT22;64680;53.800;9.988;2022-12-29T11:20:59;9.40;98.40
75994;DHT22;64680;53.800;9.988;2022-12-29T11:23:34;9.50;99.00
75994;DHT22;64680;53.800;9.988;2022-12-29T11:29:05;9.50;97.70
75994;DHT22;64680;53.800;9.988;2022-12-29T11:31:31;9.60;97.40
75994;DHT22;64680;53.800;9.988;2022-12-29T11:34:07;9.70;96.60
75994;DHT22;64680;53.800;9.988;2022-12-29T11:36:33;9.70;96.00
75994;DHT22;64680;53.800;9.988;2022-12-29T11:39:00;9.70;96.90
75994;DHT22;64680;53.800;9.988;2022-12-29T11:41:28;9.70;96.50
75994;DHT22;64680;53.800;9.988;2022-12-29T11:44:01;9.60;98.20
75994;DHT22;64680;53.800;9.988;2022-12-29T11:46:33;9.70;94.30
75994;DHT22;64680;53.800;9.988;2022-12-29T11:49:00;9.60;95.30
75994;DHT22;64680;53.800;9.988;2022-12-29T11:51:35;9.60;95.30
75994;DHT22;64680;53.800;9.988;2022-12-29T11:54:03;9.60;96.60
75994;DHT22;64680;53.800;9.988;2022-12-29T11:56:41;9.60;96.20
75994;DHT22;64680;53.800;9.988;2022-12-29T12:01:53;9.60;94.10
75994;DHT22;64680;53.800;9.988;2022-12-29T12:04:22;9.60;94.10
75994;DHT22;64680;53.800;9.988;2022-12-29T12:07:15;9.60;94.40
75994;DHT22;64680;53.800;9.988;2022-12-29T12:09:57;9.70;95.20
75994;DHT22;64680;53.800;9.988;2022-12-29T12:12:50;9.70;94.00
75994;DHT22;64680;53.800;9.988;2022-12-29T12:15:27;9.80;94.10
75994;DHT22;64680;53.800;9.988;2022-12-29T12:20:57;9.90;94.40
75994;DHT22;64680;53.800;9.988;2022-12-29T12:26:42;9.90;94.50
75994;DHT22;64680;53.800;9.988;2022-12-29T12:29:17;9.80;94.60
75994;DHT22;64680;53.800;9.988;2022-12-29T12:32:09;9.70;95.70
75994;DHT22;64680;53.800;9.988;2022-12-29T12:34:39;9.60;95.50
75994;DHT22;64680;53.800;9.988;2022-12-29T12:48:42;8.80;99.90
75994;DHT22;64680;53.800;9.988;2022-12-29T12:52:08;8.80;99.90
75994;DHT22;64680;53.800;9.988;2022-12-29T12:57:12;8.80;99.90
75994;DHT22;64680;53.800;9.988;2022-12-29T13:03:04;8.80;99.90
75994;DHT22;64680;53.800;9.988;2022-12-29T13:06:03;8.80;99.90
75994;DHT22;64680;53.800;9.988;2022-12-29T13:08:39;8.70;99.90
75994;DHT22;64680;53.800;9.988;2022-12-29T13:17:23;8.60;99.90
75994;DHT22;64680;53.800;9.988;2022-12-29T13:25:34;8.80;99.90
75994;DHT22;64680;53.800;9.988;2022-12-29T13:30:45;8.90;99.90
75994;DHT22;64680;53.800;9.988;2022-12-29T13:33:47;8.90;99.90
75994;DHT22;64680;53.800;9.988;2022-12-29T13:36:34;9.00;99.90
75994;DHT22;64680;53.800;9.988;2022-12-29T13:39:22;9.00;99.90
75994;DHT22;64680;53.800;9.988;2022-12-29T13:41:55;9.00;99.90
75994;DHT22;64680;53.800;9.988;2022-12-29T13:44:34;9.00;99.90
75994;DHT22;64680;53.800;9.988;2022-12-29T13:47:21;9.00;99.90
75994;DHT22;64680;53.800;9.988;2022-12-29T13:49:47;8.90;99.90
75994;DHT22;64680;53.800;9.988;2022-12-29T13:52:38;8.90;99.90
75994;DHT22;64680;53.800;9.988;2022-12-29T13:55:25;8.90;99.90
75994;DHT22;64680;53.800;9.988;2022-12-29T13:58:04;8.80;99.90
75994;DHT22;64680;53.800;9.988;2022-12-29T14:01:02;8.60;99.90
75994;DHT22;64680;53.800;9.988;2022-12-29T14:03:57;8.40;99.90
75994;DHT22;64680;53.800;9.988;2022-12-29T14:06:34;8.30;99.90
75994;DHT22;64680;53.800;9.988;2022-12-29T14:09:26;8.10;99.90
75994;DHT22;64680;53.800;9.988;2022-12-29T14:11:52;8.00;99.90
75994;DHT22;64680;53.800;9.988;2022-12-29T14:14:19;8.00;99.90
75994;DHT22;64680;53.800;9.988;2022-12-29T14:16:46;8.00;99.90
75994;DHT22;64680;53.800;9.988;2022-12-29T14:19:16;8.00;99.90
75994;DHT22;64680;53.800;9.988;2022-12-29T14:22:03;8.00;99.90
75994;DHT22;64680;53.800;9.988;2022-12-29T14:34:58;7.90;99.90
75994;DHT22;64680;53.800;9.988;2022-12-29T14:37:35;7.90;99.90
75994;DHT22;64680;53.800;9.988;2022-12-29T14:40:22;7.90;99.90
75994;DHT22;64680;53.800;9.988;2022-12-29T14:42:50;7.90;99.90
75994;DHT22;64680;53.800;9.988;2022-12-29T14:47:44;8.00;99.90
75994;DHT22;64680;53.800;9.988;2022-12-29T14:52:57;8.00;99.90
75994;DHT22;64680;53.800;9.988;2022-12-29T14:55:41;8.00;99.90
75994;DHT22;64680;53.800;9.988;2022-12-29T14:58:18;7.90;99.90
75994;DHT22;64680;53.800;9.988;2022-12-29T15:00:46;7.90;99.90
75994;DHT22;64680;53.800;9.988;2022-12-29T15:06:09;7.80;99.90
75994;DHT22;64680;53.800;9.988;2022-12-29T15:09:02;7.80;99.90
75994;DHT22;64680;53.800;9.988;2022-12-29T15:14:00;7.80;99.90
75994;DHT22;64680;53.800;9.988;2022-12-29T15:16:32;7.70;99.90
75994;DHT22;64680;53.800;9.988;2022-12-29T15:18:58;7.70;99.90
75994;DHT22;64680;53.800;9.988;2022-12-29T15:21:34;7.70;99.90
75994;DHT22;64680;53.800;9.988;2022-12-29T15:24:02;7.70;99.90
75994;DHT22;64680;53.800;9.988;2022-12-29T15:26:44;7.70;99.90
75994;DHT22;64680;53.800;9.988;2022-12-29T15:29:36;7.60;99.90
75994;DHT22;64680;53.800;9.988;2022-12-29T15:34:42;7.50;99.90
75994;DHT22;64680;53.800;9.988;2022-12-29T15:37:08;7.50;99.90
75994;DHT22;64680;53.800;9.988;2022-12-29T15:39:34;7.50;99.90
75994;DHT22;64680;53.800;9.988;2022-12-29T15:42:06;7.50;99.90
75994;DHT22;64680;53.800;9.988;2022-12-29T15:44:40;7.50;99.90
75994;DHT22;64680;53.800;9.988;2022-12-29T15:47:13;7.40;99.90
75994;DHT22;64680;53.800;9.988;2022-12-29T15:49:43;7.40;99.90
75994;DHT22;64680;53.800;9.988;2022-12-29T15:52:09;7.30;99.90
75994;DHT22;64680;53.800;9.988;2022-12-29T15:54:35;7.30;99.90
75994;DHT22;64680;53.800;9.988;2022-12-29T15:57:01;7.20;99.90
75994;DHT22;64680;53.800;9.988;2022-12-29T15:59:28;7.20;99.90
75994;DHT22;64680;53.800;9.988;2022-12-29T16:01:58;7.10;99.90
75994;DHT22;64680;53.800;9.988;2022-12-29T16:04:27;7.00;99.90
75994;DHT22;64680;53.800;9.988;2022-12-29T16:07:22;7.00;99.90
75994;DHT22;64680;53.800;9.988;2022-12-29T16:09:44;7.00;99.90
75994;DHT22;64680;53.800;9.988;2022-12-29T16:12:20;6.90;99.90
75994;DHT22;64680;53.800;9.988;2022-12-29T16:14:50;6.90;99.90
75994;DHT22;64680;53.800;9.988;2022-12-29T16:17:21;6.90;99.90
75994;DHT22;64680;53.800;9.988;2022-12-29T16:19:59;6.80;99.90
75994;DHT22;64680;53.800;9.988;2022-12-29T16:22:31;6.80;99.90
75994;DHT22;64680;53.800;9.988;2022-12-29T16:25:04;6.70;99.90
75994;DHT22;64680;53.800;9.988;2022-12-29T16:27:51;6.70;99.90
75994;DHT22;64680;53.800;9.988;2022-12-29T16:32:48;6.70;99.90
75994;DHT22;64680;53.800;9.988;2022-12-29T16:35:24;6.70;99.90
75994;DHT22;64680;53.800;9.988;2022-12-29T16:38:17;6.70;99.90
75994;DHT22;64680;53.800;9.988;2022-12-29T16:41:00;6.70;99.90
75994;DHT22;64680;53.800;9.988;2022-12-29T16:48:27;6.50;99.90
75994;DHT22;64680;53.800;9.988;2022-12-29T16:51:14;6.50;99.90
75994;DHT22;64680;53.800;9.988;2022-12-29T16:53:47;6.40;99.90
75994;DHT22;64680;53.800;9.988;2022-12-29T16:56:19;6.40;99.90
75994;DHT22;64680;53.800;9.988;2022-12-29T16:58:51;6.40;99.90
75994;DHT22;64680;53.800;9.988;2022-12-29T17:01:19;6.40;99.90
75994;DHT22;64680;53.800;9.988;2022-12-29T17:03:59;6.30;99.90
75994;DHT22;64680;53.800;9.988;2022-12-29T17:06:25;6.30;99.90
75994;DHT22;64680;53.800;9.988;2022-12-29T17:08:51;6.30;99.90
75994;DHT22;64680;53.800;9.988;2022-12-29T17:11:30;6.30;99.90
75994;DHT22;64680;53.800;9.988;2022-12-29T17:16:45;6.20;99.90
75994;DHT22;64680;53.800;9.988;2022-12-29T17:19:18;6.20;99.90
75994;DHT22;64680;53.800;9.988;2022-12-29T17:21:44;6.20;99.90
75994;DHT22;64680;53.800;9.988;2022-12-29T17:24:18;6.30;99.90
75994;DHT22;64680;53.800;9.988;2022-12-29T17:26:50;6.40;99.90
75994;DHT22;64680;53.800;9.988;2022-12-29T17:31:48;6.40;99.90
75994;DHT22;64680;53.800;9.988;2022-12-29T17:34:14;6.40;99.90
75994;DHT22;64680;53.800;9.988;2022-12-29T17:36:39;6.30;99.90
75994;DHT22;64680;53.800;9.988;2022-12-29T17:39:05;6.30;99.90
75994;DHT22;64680;53.800;9.988;2022-12-29T17:41:33;6.30;99.90
75994;DHT22;64680;53.800;9.988;2022-12-29T17:44:01;6.30;99.90
75994;DHT22;64680;53.800;9.988;2022-12-29T17:46:26;6.20;99.90
75994;DHT22;64680;53.800;9.988;2022-12-29T17:48:52;6.20;99.90
75994;DHT22;64680;53.800;9.988;2022-12-29T17:51:19;6.20;99.90
75994;DHT22;64680;53.800;9.988;2022-12-29T17:53:45;6.30;99.90
75994;DHT22;64680;53.800;9.988;2022-12-29T17:56:11;6.20;99.90
75994;DHT22;64680;53.800;9.988;2022-12-29T17:58:37;6.20;99.90
75994;DHT22;64680;53.800;9.988;2022-12-29T18:01:03;6.10;99.90
75994;DHT22;64680;53.800;9.988;2022-12-29T18:03:35;6.20;99.90
75994;DHT22;64680;53.800;9.988;2022-12-29T18:06:02;6.30;99.90
75994;DHT22;64680;53.800;9.988;2022-12-29T18:08:31;6.40;99.90
75994;DHT22;64680;53.800;9.988;2022-12-29T18:10:58;6.50;99.90
75994;DHT22;64680;53.800;9.988;2022-12-29T18:13:30;6.60;99.90
75994;DHT22;64680;53.800;9.988;2022-12-29T18:15:57;6.60;99.90
75994;DHT22;64680;53.800;9.988;2022-12-29T18:18:25;6.70;99.90
75994;DHT22;64680;53.800;9.988;2022-12-29T18:20:54;6.70;99.90
75994;DHT22;64680;53.800;9.988;2022-12-29T18:23:32;6.70;99.90
75994;DHT22;64680;53.800;9.988;2022-12-29T18:26:13;6.80;99.90